sensor_id;sensor_type;location;lat;lon;timestamp;temperature;humidity
15384;DHT22;7790;53.022;12.968;2023-06-10T00:00:49;21.10;49.40
15384;DHT22;7790;53.022;12.968;2023-06-10T00:04:51;21.10;49.50
15384;DHT22;7790;53.022;12.968;2023-06-10T00:08:53;21.00;49.50
15384;DHT22;7790;53.022;12.968;2023-06-10T00:12:54;21.00;49.60
15384;DHT22;7790;53.022;12.968;2023-06-10T00:16:55;21.00;49.60
15384;DHT22;7790;53.022;12.968;2023-06-10T00:20:58;21.00;49.80
15384;DHT22;7790;53.022;12.968;2023-06-10T00:25:05;20.90;49.70
15384;DHT22;7790;53.022;12.968;2023-06-10T00:29:07;20.90;49.70
15384;DHT22;7790;53.022;12.968;2023-06-10T00:33:08;20.90;49.80
15384;DHT22;7790;53.022;12.968;2023-06-10T00:37:09;20.90;49.80
15384;DHT22;7790;53.022;12.968;2023-06-10T00:41:10;20.90;49.90
15384;DHT22;7790;53.022;12.968;2023-06-10T00:45:11;20.80;49.90
15384;DHT22;7790;53.022;12.968;2023-06-10T00:49:12;20.80;49.90
15384;DHT22;7790;53.022;12.968;2023-06-10T00:53:13;20.80;50.00
15384;DHT22;7790;53.022;12.968;2023-06-10T00:57:14;20.80;50.00
15384;DHT22;7790;53.022;12.968;2023-06-10T01:01:15;20.80;50.00
15384;DHT22;7790;53.022;12.968;2023-06-10T01:05:16;20.80;50.10
15384;DHT22;7790;53.022;12.968;2023-06-10T01:09:37;20.70;50.10
15384;DHT22;7790;53.022;12.968;2023-06-10T01:13:44;20.70;50.20
15384;DHT22;7790;53.022;12.968;2023-06-10T01:17:54;20.70;50.30
15384;DHT22;7790;53.022;12.968;2023-06-10T01:21:55;20.70;50.30
15384;DHT22;7790;53.022;12.968;2023-06-10T01:26:09;20.70;50.20
15384;DHT22;7790;53.022;12.968;2023-06-10T01:30:19;20.70;50.30
15384;DHT22;7790;53.022;12.968;2023-06-10T01:34:24;20.60;50.40
15384;DHT22;7790;53.022;12.968;2023-06-10T01:38:32;20.60;50.50
15384;DHT22;7790;53.022;12.968;2023-06-10T01:42:35;20.60;50.60
15384;DHT22;7790;53.022;12.968;2023-06-10T01:46:36;20.60;50.60
15384;DHT22;7790;53.022;12.968;2023-06-10T01:50:37;20.60;50.50
15384;DHT22;7790;53.022;12.968;2023-06-10T01:54:38;20.60;50.60
15384;DHT22;7790;53.022;12.968;2023-06-10T01:58:40;20.50;50.50
15384;DHT22;7790;53.022;12.968;2023-06-10T02:02:41;20.50;50.60
15384;DHT22;7790;53.022;12.968;2023-06-10T02:06:41;20.50;50.60
15384;DHT22;7790;53.022;12.968;2023-06-10T02:10:43;20.50;50.70
15384;DHT22;7790;53.022;12.968;2023-06-10T02:14:44;20.50;50.70
15384;DHT22;7790;53.022;12.968;2023-06-10T02:18:45;20.50;50.70
15384;DHT22;7790;53.022;12.968;2023-06-10T02:22:47;20.40;50.70
15384;DHT22;7790;53.022;12.968;2023-06-10T02:26:47;20.40;50.70
15384;DHT22;7790;53.022;12.968;2023-06-10T02:30:48;20.40;50.70
15384;DHT22;7790;53.022;12.968;2023-06-10T02:34:49;20.40;50.70
15384;DHT22;7790;53.022;12.968;2023-06-10T02:38:51;20.40;50.80
15384;DHT22;7790;53.022;12.968;2023-06-10T02:42:52;20.40;50.80
15384;DHT22;7790;53.022;12.968;2023-06-10T02:46:54;20.40;50.90
15384;DHT22;7790;53.022;12.968;2023-06-10T02:50:55;20.40;50.80
15384;DHT22;7790;53.022;12.968;2023-06-10T02:55:06;20.40;50.80
15384;DHT22;7790;53.022;12.968;2023-06-10T02:59:08;20.40;50.90
15384;DHT22;7790;53.022;12.968;2023-06-10T03:03:09;20.30;50.90
15384;DHT22;7790;53.022;12.968;2023-06-10T03:07:19;20.30;51.00
15384;DHT22;7790;53.022;12.968;2023-06-10T03:11:22;20.30;51.10
15384;DHT22;7790;53.022;12.968;2023-06-10T03:15:24;20.30;51.10
15384;DHT22;7790;53.022;12.968;2023-06-10T03:19:26;20.30;51.10
15384;DHT22;7790;53.022;12.968;2023-06-10T03:23:29;20.20;51.10
15384;DHT22;7790;53.022;12.968;2023-06-10T03:27:30;20.20;51.10
15384;DHT22;7790;53.022;12.968;2023-06-10T03:31:34;20.20;51.10
15384;DHT22;7790;53.022;12.968;2023-06-10T03:35:38;20.20;51.20
15384;DHT22;7790;53.022;12.968;2023-06-10T03:39:40;20.30;51.30
15384;DHT22;7790;53.022;12.968;2023-06-10T03:43:41;20.20;51.30
15384;DHT22;7790;53.022;12.968;2023-06-10T03:47:43;20.20;51.50
15384;DHT22;7790;53.022;12.968;2023-06-10T03:51:48;20.20;51.50
15384;DHT22;7790;53.022;12.968;2023-06-10T03:55:49;20.30;51.50
15384;DHT22;7790;53.022;12.968;2023-06-10T03:59:54;20.40;51.50
15384;DHT22;7790;53.022;12.968;2023-06-10T04:03:56;20.40;51.50
15384;DHT22;7790;53.022;12.968;2023-06-10T04:07:56;20.40;51.50
15384;DHT22;7790;53.022;12.968;2023-06-10T04:11:58;20.40;51.60
15384;DHT22;7790;53.022;12.968;2023-06-10T04:15:59;20.40;51.50
15384;DHT22;7790;53.022;12.968;2023-06-10T04:20:00;20.40;51.60
15384;DHT22;7790;53.022;12.968;2023-06-10T04:24:03;20.30;51.50
15384;DHT22;7790;53.022;12.968;2023-06-10T04:28:04;20.30;51.60
15384;DHT22;7790;53.022;12.968;2023-06-10T04:32:06;20.30;51.70
15384;DHT22;7790;53.022;12.968;2023-06-10T04:36:08;20.20;51.70
15384;DHT22;7790;53.022;12.968;2023-06-10T04:40:10;20.20;51.80
15384;DHT22;7790;53.022;12.968;2023-06-10T04:44:12;20.20;52.40
15384;DHT22;7790;53.022;12.968;2023-06-10T04:48:15;20.30;51.70
15384;DHT22;7790;53.022;12.968;2023-06-10T04:52:16;20.30;51.70
15384;DHT22;7790;53.022;12.968;2023-06-10T04:56:16;20.90;52.00
15384;DHT22;7790;53.022;12.968;2023-06-10T05:00:18;20.40;51.70
15384;DHT22;7790;53.022;12.968;2023-06-10T05:04:18;20.40;51.70
15384;DHT22;7790;53.022;12.968;2023-06-10T05:08:21;20.40;51.70
15384;DHT22;7790;53.022;12.968;2023-06-10T05:12:22;20.40;51.70
15384;DHT22;7790;53.022;12.968;2023-06-10T05:16:23;20.50;51.90
15384;DHT22;7790;53.022;12.968;2023-06-10T05:20:25;20.50;51.80
15384;DHT22;7790;53.022;12.968;2023-06-10T05:24:26;20.60;52.00
15384;DHT22;7790;53.022;12.968;2023-06-10T05:28:27;20.60;51.90
15384;DHT22;7790;53.022;12.968;2023-06-10T05:32:28;20.60;52.00
15384;DHT22;7790;53.022;12.968;2023-06-10T05:36:28;20.60;52.00
15384;DHT22;7790;53.022;12.968;2023-06-10T05:40:30;20.60;52.00
15384;DHT22;7790;53.022;12.968;2023-06-10T05:44:31;20.60;52.00
15384;DHT22;7790;53.022;12.968;2023-06-10T05:48:31;20.60;51.90
15384;DHT22;7790;53.022;12.968;2023-06-10T05:52:36;20.60;51.80
15384;DHT22;7790;53.022;12.968;2023-06-10T05:56:37;20.70;51.80
15384;DHT22;7790;53.022;12.968;2023-06-10T06:00:38;20.70;51.80
15384;DHT22;7790;53.022;12.968;2023-06-10T06:04:39;20.70;51.80
15384;DHT22;7790;53.022;12.968;2023-06-10T06:08:40;20.70;51.80
15384;DHT22;7790;53.022;12.968;2023-06-10T06:12:41;20.70;51.70
15384;DHT22;7790;53.022;12.968;2023-06-10T06:16:42;20.70;51.60
15384;DHT22;7790;53.022;12.968;2023-06-10T06:20:43;20.70;51.60
15384;DHT22;7790;53.022;12.968;2023-06-10T06:24:43;20.70;51.60
15384;DHT22;7790;53.022;12.968;2023-06-10T06:28:44;20.70;51.60
15384;DHT22;7790;53.022;12.968;2023-06-10T06:32:46;20.70;51.50
15384;DHT22;7790;53.022;12.968;2023-06-10T06:36:47;20.80;51.50
15384;DHT22;7790;53.022;12.968;2023-06-10T06:40:48;20.80;51.50
15384;DHT22;7790;53.022;12.968;2023-06-10T06:44:49;20.80;51.40
15384;DHT22;7790;53.022;12.968;2023-06-10T06:48:49;20.80;51.50
15384;DHT22;7790;53.022;12.968;2023-06-10T06:52:50;20.90;51.40
15384;DHT22;7790;53.022;12.968;2023-06-10T06:56:51;20.90;51.50
15384;DHT22;7790;53.022;12.968;2023-06-10T07:00:52;20.90;51.50
15384;DHT22;7790;53.022;12.968;2023-06-10T07:04:55;21.00;51.40
15384;DHT22;7790;53.022;12.968;2023-06-10T07:08:56;21.10;51.50
15384;DHT22;7790;53.022;12.968;2023-06-10T07:12:58;21.10;51.50
15384;DHT22;7790;53.022;12.968;2023-06-10T07:16:59;21.00;51.50
15384;DHT22;7790;53.022;12.968;2023-06-10T07:21:00;21.00;51.60
15384;DHT22;7790;53.022;12.968;2023-06-10T07:25:01;21.10;51.40
15384;DHT22;7790;53.022;12.968;2023-06-10T07:29:02;21.10;51.50
15384;DHT22;7790;53.022;12.968;2023-06-10T07:33:03;21.20;51.50
15384;DHT22;7790;53.022;12.968;2023-06-10T07:37:04;21.20;51.30
15384;DHT22;7790;53.022;12.968;2023-06-10T07:41:05;21.30;51.10
15384;DHT22;7790;53.022;12.968;2023-06-10T07:45:06;21.30;51.10
15384;DHT22;7790;53.022;12.968;2023-06-10T07:49:07;21.30;50.90
15384;DHT22;7790;53.022;12.968;2023-06-10T07:53:08;21.30;50.80
15384;DHT22;7790;53.022;12.968;2023-06-10T07:57:09;21.30;50.70
15384;DHT22;7790;53.022;12.968;2023-06-10T08:01:10;21.40;50.80
15384;DHT22;7790;53.022;12.968;2023-06-10T08:05:11;21.40;50.70
15384;DHT22;7790;53.022;12.968;2023-06-10T08:09:12;21.40;50.70
15384;DHT22;7790;53.022;12.968;2023-06-10T08:13:12;21.40;50.60
15384;DHT22;7790;53.022;12.968;2023-06-10T08:17:13;21.40;50.50
15384;DHT22;7790;53.022;12.968;2023-06-10T08:21:14;21.40;50.50
15384;DHT22;7790;53.022;12.968;2023-06-10T08:25:15;21.40;50.50
15384;DHT22;7790;53.022;12.968;2023-06-10T08:29:16;21.40;50.40
15384;DHT22;7790;53.022;12.968;2023-06-10T08:33:18;21.40;50.50
15384;DHT22;7790;53.022;12.968;2023-06-10T08:37:19;21.40;50.50
15384;DHT22;7790;53.022;12.968;2023-06-10T08:41:21;21.40;50.50
15384;DHT22;7790;53.022;12.968;2023-06-10T08:45:30;21.40;50.50
15384;DHT22;7790;53.022;12.968;2023-06-10T08:49:38;21.40;50.50
15384;DHT22;7790;53.022;12.968;2023-06-10T08:54:01;21.40;50.50
15384;DHT22;7790;53.022;12.968;2023-06-10T08:58:03;21.40;50.50
15384;DHT22;7790;53.022;12.968;2023-06-10T09:02:06;21.50;50.50
15384;DHT22;7790;53.022;12.968;2023-06-10T09:06:09;21.50;50.40
15384;DHT22;7790;53.022;12.968;2023-06-10T09:10:11;21.50;50.30
15384;DHT22;7790;53.022;12.968;2023-06-10T09:14:12;21.50;50.20
15384;DHT22;7790;53.022;12.968;2023-06-10T09:18:13;21.50;50.70
15384;DHT22;7790;53.022;12.968;2023-06-10T09:22:14;21.50;50.10
15384;DHT22;7790;53.022;12.968;2023-06-10T09:26:15;21.50;50.10
15384;DHT22;7790;53.022;12.968;2023-06-10T09:30:28;21.50;50.00
15384;DHT22;7790;53.022;12.968;2023-06-10T09:34:29;21.50;50.00
15384;DHT22;7790;53.022;12.968;2023-06-10T09:38:32;21.50;50.00
15384;DHT22;7790;53.022;12.968;2023-06-10T09:42:34;21.50;50.00
15384;DHT22;7790;53.022;12.968;2023-06-10T09:46:35;21.60;50.00
15384;DHT22;7790;53.022;12.968;2023-06-10T09:50:43;21.60;49.90
15384;DHT22;7790;53.022;12.968;2023-06-10T09:54:44;21.60;49.90
15384;DHT22;7790;53.022;12.968;2023-06-10T09:58:45;21.60;49.80
15384;DHT22;7790;53.022;12.968;2023-06-10T10:02:48;21.60;49.80
15384;DHT22;7790;53.022;12.968;2023-06-10T10:06:49;21.60;49.80
15384;DHT22;7790;53.022;12.968;2023-06-10T10:10:50;21.60;49.80
15384;DHT22;7790;53.022;12.968;2023-06-10T10:14:52;21.60;49.70
15384;DHT22;7790;53.022;12.968;2023-06-10T10:18:55;21.60;49.70
15384;DHT22;7790;53.022;12.968;2023-06-10T10:22:57;21.60;49.60
15384;DHT22;7790;53.022;12.968;2023-06-10T10:27:01;21.60;49.60
15384;DHT22;7790;53.022;12.968;2023-06-10T10:31:08;21.60;49.60
15384;DHT22;7790;53.022;12.968;2023-06-10T10:35:21;21.60;49.50
15384;DHT22;7790;53.022;12.968;2023-06-10T10:39:24;21.60;49.50
15384;DHT22;7790;53.022;12.968;2023-06-10T10:43:28;21.60;49.40
15384;DHT22;7790;53.022;12.968;2023-06-10T10:47:30;21.60;49.50
15384;DHT22;7790;53.022;12.968;2023-06-10T10:51:34;21.60;49.40
15384;DHT22;7790;53.022;12.968;2023-06-10T10:55:35;21.60;49.40
15384;DHT22;7790;53.022;12.968;2023-06-10T11:00:03;21.70;49.40
15384;DHT22;7790;53.022;12.968;2023-06-10T11:04:07;21.70;49.40
15384;DHT22;7790;53.022;12.968;2023-06-10T11:08:09;21.70;49.40
15384;DHT22;7790;53.022;12.968;2023-06-10T11:12:10;21.70;49.30
15384;DHT22;7790;53.022;12.968;2023-06-10T11:16:11;21.70;49.30
15384;DHT22;7790;53.022;12.968;2023-06-10T11:24:50;21.70;49.30
15384;DHT22;7790;53.022;12.968;2023-06-10T11:32:55;21.70;49.10
15384;DHT22;7790;53.022;12.968;2023-06-10T11:36:56;21.70;49.10
15384;DHT22;7790;53.022;12.968;2023-06-10T11:40:58;21.70;49.20
15384;DHT22;7790;53.022;12.968;2023-06-10T11:44:59;21.70;49.10
15384;DHT22;7790;53.022;12.968;2023-06-10T11:49:03;21.70;48.90
15384;DHT22;7790;53.022;12.968;2023-06-10T11:53:08;21.70;49.00
15384;DHT22;7790;53.022;12.968;2023-06-10T11:57:09;21.70;48.80
15384;DHT22;7790;53.022;12.968;2023-06-10T12:01:11;21.80;48.80
15384;DHT22;7790;53.022;12.968;2023-06-10T12:05:14;21.80;48.70
15384;DHT22;7790;53.022;12.968;2023-06-10T12:09:25;21.80;48.90
15384;DHT22;7790;53.022;12.968;2023-06-10T12:13:27;21.80;48.90
15384;DHT22;7790;53.022;12.968;2023-06-10T12:21:36;21.70;48.90
15384;DHT22;7790;53.022;12.968;2023-06-10T12:25:38;21.70;48.80
15384;DHT22;7790;53.022;12.968;2023-06-10T12:29:39;21.80;48.70
15384;DHT22;7790;53.022;12.968;2023-06-10T12:33:40;21.80;48.80
15384;DHT22;7790;53.022;12.968;2023-06-10T12:37:42;21.80;48.80
15384;DHT22;7790;53.022;12.968;2023-06-10T12:41:48;21.80;48.80
15384;DHT22;7790;53.022;12.968;2023-06-10T12:45:49;21.80;48.80
15384;DHT22;7790;53.022;12.968;2023-06-10T12:49:50;21.80;48.80
15384;DHT22;7790;53.022;12.968;2023-06-10T12:53:51;21.80;48.60
15384;DHT22;7790;53.022;12.968;2023-06-10T12:57:52;21.90;49.30
15384;DHT22;7790;53.022;12.968;2023-06-10T13:01:54;22.00;48.90
15384;DHT22;7790;53.022;12.968;2023-06-10T13:05:55;21.90;49.00
15384;DHT22;7790;53.022;12.968;2023-06-10T13:09:57;22.00;49.00
15384;DHT22;7790;53.022;12.968;2023-06-10T13:13:58;22.00;49.10
15384;DHT22;7790;53.022;12.968;2023-06-10T13:17:59;21.90;49.20
15384;DHT22;7790;53.022;12.968;2023-06-10T13:22:01;22.00;49.30
15384;DHT22;7790;53.022;12.968;2023-06-10T13:26:02;22.00;49.10
15384;DHT22;7790;53.022;12.968;2023-06-10T13:30:04;21.90;49.40
15384;DHT22;7790;53.022;12.968;2023-06-10T13:34:05;22.00;49.40
15384;DHT22;7790;53.022;12.968;2023-06-10T13:38:07;22.10;49.10
15384;DHT22;7790;53.022;12.968;2023-06-10T13:42:08;22.10;49.70
15384;DHT22;7790;53.022;12.968;2023-06-10T13:46:09;22.10;49.20
15384;DHT22;7790;53.022;12.968;2023-06-10T13:50:10;22.00;49.20
15384;DHT22;7790;53.022;12.968;2023-06-10T13:54:11;22.00;49.30
15384;DHT22;7790;53.022;12.968;2023-06-10T13:58:15;21.90;49.40
15384;DHT22;7790;53.022;12.968;2023-06-10T14:02:16;22.00;49.30
15384;DHT22;7790;53.022;12.968;2023-06-10T14:06:17;22.00;49.40
15384;DHT22;7790;53.022;12.968;2023-06-10T14:10:19;22.00;49.30
15384;DHT22;7790;53.022;12.968;2023-06-10T14:14:20;22.10;49.20
15384;DHT22;7790;53.022;12.968;2023-06-10T14:18:22;22.10;49.10
15384;DHT22;7790;53.022;12.968;2023-06-10T14:22:23;22.10;49.20
15384;DHT22;7790;53.022;12.968;2023-06-10T14:26:23;22.00;49.30
15384;DHT22;7790;53.022;12.968;2023-06-10T14:30:25;22.00;49.30
15384;DHT22;7790;53.022;12.968;2023-06-10T14:34:26;22.00;49.30
15384;DHT22;7790;53.022;12.968;2023-06-10T14:38:34;22.00;49.30
15384;DHT22;7790;53.022;12.968;2023-06-10T14:42:34;22.10;49.20
15384;DHT22;7790;53.022;12.968;2023-06-10T14:46:35;22.10;49.10
15384;DHT22;7790;53.022;12.968;2023-06-10T14:50:37;22.10;49.20
15384;DHT22;7790;53.022;12.968;2023-06-10T14:54:38;22.10;49.20
15384;DHT22;7790;53.022;12.968;2023-06-10T14:58:38;22.20;49.40
15384;DHT22;7790;53.022;12.968;2023-06-10T15:02:39;22.20;49.00
15384;DHT22;7790;53.022;12.968;2023-06-10T15:06:41;22.20;49.10
15384;DHT22;7790;53.022;12.968;2023-06-10T15:10:43;22.20;48.90
15384;DHT22;7790;53.022;12.968;2023-06-10T15:14:43;22.20;48.80
15384;DHT22;7790;53.022;12.968;2023-06-10T15:18:44;22.20;48.80
15384;DHT22;7790;53.022;12.968;2023-06-10T15:22:45;22.20;48.80
15384;DHT22;7790;53.022;12.968;2023-06-10T15:26:46;22.10;48.50
15384;DHT22;7790;53.022;12.968;2023-06-10T15:30:47;22.10;48.80
15384;DHT22;7790;53.022;12.968;2023-06-10T15:34:48;22.10;48.80
15384;DHT22;7790;53.022;12.968;2023-06-10T15:38:49;22.20;48.80
15384;DHT22;7790;53.022;12.968;2023-06-10T15:42:50;22.20;48.80
15384;DHT22;7790;53.022;12.968;2023-06-10T15:46:51;22.20;48.90
15384;DHT22;7790;53.022;12.968;2023-06-10T15:50:52;22.20;48.90
15384;DHT22;7790;53.022;12.968;2023-06-10T15:54:53;22.20;48.80
15384;DHT22;7790;53.022;12.968;2023-06-10T15:58:54;22.30;48.80
15384;DHT22;7790;53.022;12.968;2023-06-10T16:02:55;22.40;48.70
15384;DHT22;7790;53.022;12.968;2023-06-10T16:06:55;22.40;48.70
15384;DHT22;7790;53.022;12.968;2023-06-10T16:10:57;22.40;48.80
15384;DHT22;7790;53.022;12.968;2023-06-10T16:14:59;22.40;49.10
15384;DHT22;7790;53.022;12.968;2023-06-10T16:19:00;22.30;49.10
15384;DHT22;7790;53.022;12.968;2023-06-10T16:23:05;22.30;49.10
15384;DHT22;7790;53.022;12.968;2023-06-10T16:27:06;22.30;49.30
15384;DHT22;7790;53.022;12.968;2023-06-10T16:31:08;22.30;49.40
15384;DHT22;7790;53.022;12.968;2023-06-10T16:35:08;22.30;49.10
15384;DHT22;7790;53.022;12.968;2023-06-10T16:39:09;22.30;49.20
15384;DHT22;7790;53.022;12.968;2023-06-10T16:43:10;22.30;49.30
15384;DHT22;7790;53.022;12.968;2023-06-10T16:47:11;22.30;49.30
15384;DHT22;7790;53.022;12.968;2023-06-10T16:51:12;22.40;49.60
15384;DHT22;7790;53.022;12.968;2023-06-10T16:55:12;22.30;49.30
15384;DHT22;7790;53.022;12.968;2023-06-10T16:59:13;22.30;49.30
15384;DHT22;7790;53.022;12.968;2023-06-10T17:03:14;22.30;49.40
15384;DHT22;7790;53.022;12.968;2023-06-10T17:07:15;22.30;49.30
15384;DHT22;7790;53.022;12.968;2023-06-10T17:11:17;22.30;49.40
15384;DHT22;7790;53.022;12.968;2023-06-10T17:15:18;22.40;49.30
15384;DHT22;7790;53.022;12.968;2023-06-10T17:19:19;22.40;49.30
15384;DHT22;7790;53.022;12.968;2023-06-10T17:23:19;22.30;49.30
15384;DHT22;7790;53.022;12.968;2023-06-10T17:27:20;22.30;49.40
15384;DHT22;7790;53.022;12.968;2023-06-10T17:31:21;22.30;49.40
15384;DHT22;7790;53.022;12.968;2023-06-10T17:35:22;22.40;49.40
15384;DHT22;7790;53.022;12.968;2023-06-10T17:39:23;22.50;49.10
15384;DHT22;7790;53.022;12.968;2023-06-10T17:43:24;22.60;48.90
15384;DHT22;7790;53.022;12.968;2023-06-10T17:47:25;22.60;48.80
15384;DHT22;7790;53.022;12.968;2023-06-10T17:51:26;22.70;48.80
15384;DHT22;7790;53.022;12.968;2023-06-10T17:55:27;22.70;49.10
15384;DHT22;7790;53.022;12.968;2023-06-10T17:59:28;22.70;49.20
15384;DHT22;7790;53.022;12.968;2023-06-10T18:03:28;22.70;49.40
15384;DHT22;7790;53.022;12.968;2023-06-10T18:07:29;22.70;49.20
15384;DHT22;7790;53.022;12.968;2023-06-10T18:11:31;22.70;49.30
15384;DHT22;7790;53.022;12.968;2023-06-10T18:15:32;22.70;49.40
15384;DHT22;7790;53.022;12.968;2023-06-10T18:19:33;22.70;49.60
15384;DHT22;7790;53.022;12.968;2023-06-10T18:23:33;22.80;49.80
15384;DHT22;7790;53.022;12.968;2023-06-10T18:27:34;22.70;49.80
15384;DHT22;7790;53.022;12.968;2023-06-10T18:31:35;22.80;49.80
15384;DHT22;7790;53.022;12.968;2023-06-10T18:35:36;22.80;49.90
15384;DHT22;7790;53.022;12.968;2023-06-10T18:39:39;22.90;50.00
15384;DHT22;7790;53.022;12.968;2023-06-10T18:43:39;22.90;50.00
15384;DHT22;7790;53.022;12.968;2023-06-10T18:47:40;22.80;49.90
15384;DHT22;7790;53.022;12.968;2023-06-10T18:51:41;22.80;49.80
15384;DHT22;7790;53.022;12.968;2023-06-10T18:55:42;22.90;49.80
15384;DHT22;7790;53.022;12.968;2023-06-10T18:59:43;22.90;50.00
15384;DHT22;7790;53.022;12.968;2023-06-10T19:03:44;23.00;46.60
15384;DHT22;7790;53.022;12.968;2023-06-10T19:07:45;23.10;48.40
15384;DHT22;7790;53.022;12.968;2023-06-10T19:11:46;23.00;46.80
15384;DHT22;7790;53.022;12.968;2023-06-10T19:15:46;22.90;46.10
15384;DHT22;7790;53.022;12.968;2023-06-10T19:19:47;22.90;44.30
15384;DHT22;7790;53.022;12.968;2023-06-10T19:23:48;22.90;44.70
15384;DHT22;7790;53.022;12.968;2023-06-10T19:27:49;22.80;44.10
15384;DHT22;7790;53.022;12.968;2023-06-10T19:31:50;22.90;45.80
15384;DHT22;7790;53.022;12.968;2023-06-10T19:35:51;22.90;45.80
15384;DHT22;7790;53.022;12.968;2023-06-10T19:39:51;22.70;43.20
15384;DHT22;7790;53.022;12.968;2023-06-10T19:43:52;22.70;44.00
15384;DHT22;7790;53.022;12.968;2023-06-10T19:47:53;22.50;43.60
15384;DHT22;7790;53.022;12.968;2023-06-10T19:51:54;22.60;43.90
15384;DHT22;7790;53.022;12.968;2023-06-10T19:55:55;22.60;43.70
15384;DHT22;7790;53.022;12.968;2023-06-10T19:59:55;22.70;43.90
15384;DHT22;7790;53.022;12.968;2023-06-10T20:03:56;22.70;43.90
15384;DHT22;7790;53.022;12.968;2023-06-10T20:07:57;22.60;43.60
15384;DHT22;7790;53.022;12.968;2023-06-10T20:11:58;22.60;43.70
15384;DHT22;7790;53.022;12.968;2023-06-10T20:15:59;22.60;43.70
15384;DHT22;7790;53.022;12.968;2023-06-10T20:20:00;22.50;43.40
15384;DHT22;7790;53.022;12.968;2023-06-10T20:24:01;22.60;44.60
15384;DHT22;7790;53.022;12.968;2023-06-10T20:28:02;22.60;44.10
15384;DHT22;7790;53.022;12.968;2023-06-10T20:32:03;22.60;43.60
15384;DHT22;7790;53.022;12.968;2023-06-10T20:36:04;22.50;43.50
15384;DHT22;7790;53.022;12.968;2023-06-10T20:40:06;22.50;43.40
15384;DHT22;7790;53.022;12.968;2023-06-10T20:44:07;22.40;43.30
15384;DHT22;7790;53.022;12.968;2023-06-10T20:48:07;22.40;43.80
15384;DHT22;7790;53.022;12.968;2023-06-10T20:52:08;22.40;43.30
15384;DHT22;7790;53.022;12.968;2023-06-10T20:56:09;22.30;42.90
15384;DHT22;7790;53.022;12.968;2023-06-10T21:00:13;22.30;43.00
15384;DHT22;7790;53.022;12.968;2023-06-10T21:04:14;22.30;43.00
15384;DHT22;7790;53.022;12.968;2023-06-10T21:08:15;22.30;43.20
15384;DHT22;7790;53.022;12.968;2023-06-10T21:12:16;22.20;43.30
15384;DHT22;7790;53.022;12.968;2023-06-10T21:16:17;22.20;43.50
15384;DHT22;7790;53.022;12.968;2023-06-10T21:20:18;22.20;43.50
15384;DHT22;7790;53.022;12.968;2023-06-10T21:24:19;22.10;43.70
15384;DHT22;7790;53.022;12.968;2023-06-10T21:28:20;22.10;43.90
15384;DHT22;7790;53.022;12.968;2023-06-10T21:32:21;22.10;43.90
15384;DHT22;7790;53.022;12.968;2023-06-10T21:36:21;22.00;43.90
15384;DHT22;7790;53.022;12.968;2023-06-10T21:40:22;22.00;44.10
15384;DHT22;7790;53.022;12.968;2023-06-10T21:44:23;21.90;44.20
15384;DHT22;7790;53.022;12.968;2023-06-10T21:48:24;21.90;44.30
15384;DHT22;7790;53.022;12.968;2023-06-10T21:52:26;21.90;44.40
15384;DHT22;7790;53.022;12.968;2023-06-10T21:56:28;21.80;44.30
15384;DHT22;7790;53.022;12.968;2023-06-10T22:00:33;21.80;44.60
15384;DHT22;7790;53.022;12.968;2023-06-10T22:04:33;21.80;44.70
15384;DHT22;7790;53.022;12.968;2023-06-10T22:08:35;21.80;44.60
15384;DHT22;7790;53.022;12.968;2023-06-10T22:12:36;21.70;44.60
15384;DHT22;7790;53.022;12.968;2023-06-10T22:16:37;21.80;44.70
15384;DHT22;7790;53.022;12.968;2023-06-10T22:20:38;21.70;44.80
15384;DHT22;7790;53.022;12.968;2023-06-10T22:24:38;21.70;44.90
15384;DHT22;7790;53.022;12.968;2023-06-10T22:28:39;21.60;44.90
15384;DHT22;7790;53.022;12.968;2023-06-10T22:32:40;21.60;45.00
15384;DHT22;7790;53.022;12.968;2023-06-10T22:36:41;21.60;45.00
15384;DHT22;7790;53.022;12.968;2023-06-10T22:40:42;21.60;45.20
15384;DHT22;7790;53.022;12.968;2023-06-10T22:44:42;21.50;45.20
15384;DHT22;7790;53.022;12.968;2023-06-10T22:48:44;21.50;45.30
15384;DHT22;7790;53.022;12.968;2023-06-10T22:52:45;21.50;45.40
15384;DHT22;7790;53.022;12.968;2023-06-10T22:56:46;21.50;45.40
15384;DHT22;7790;53.022;12.968;2023-06-10T23:00:49;21.40;45.40
15384;DHT22;7790;53.022;12.968;2023-06-10T23:04:53;21.40;45.40
15384;DHT22;7790;53.022;12.968;2023-06-10T23:08:57;21.40;45.30
15384;DHT22;7790;53.022;12.968;2023-06-10T23:12:58;21.30;45.10
15384;DHT22;7790;53.022;12.968;2023-06-10T23:16:59;21.30;45.50
15384;DHT22;7790;53.022;12.968;2023-06-10T23:21:01;21.30;45.40
15384;DHT22;7790;53.022;12.968;2023-06-10T23:25:02;21.30;45.70
15384;DHT22;7790;53.022;12.968;2023-06-10T23:29:04;21.30;45.80
15384;DHT22;7790;53.022;12.968;2023-06-10T23:33:05;21.20;45.70
15384;DHT22;7790;53.022;12.968;2023-06-10T23:37:06;21.20;45.80
15384;DHT22;7790;53.022;12.968;2023-06-10T23:41:11;21.20;45.80
15384;DHT22;7790;53.022;12.968;2023-06-10T23:45:14;21.10;45.80
15384;DHT22;7790;53.022;12.968;2023-06-10T23:49:15;21.10;45.90
15384;DHT22;7790;53.022;12.968;2023-06-10T23:53:16;21.10;45.90
15384;DHT22;7790;53.022;12.968;2023-06-10T23:57:17;21.10;45.80
